This is the latest recevied weather packets stored in our database for station/object ON5MM-5. If no packets are shown the sender has not sent any weather packets the latest 10 day(s).
| Time | Temp. | Humidity | Pressure | Rain* | Wind** | Luminosity | Snow |
|---|---|---|---|---|---|---|---|
| 1777216802 | 17.22° C | 32% | 1024.8 hPa | 0 mm | 1.34 m/s, ° | - | - |
| 1777216503 | 17.78° C | 32% | 1024.8 hPa | 0 mm | 1.34 m/s, ° | - | - |
| 1777216203 | 17.78° C | 34% | 1024.8 hPa | 0 mm | 1.79 m/s, ° | - | - |
| 1777215903 | 17.22° C | 35% | 1024.9 hPa | 0 mm | 1.79 m/s, ° | - | - |
| 1777213502 | 17.22° C | 36% | 1025 hPa | 0 mm | 1.79 m/s, ° | - | - |
| 1777213202 | 17.22° C | 35% | 1025 hPa | 0 mm | 1.79 m/s, ° | - | - |
| 1777206903 | 17.22° C | 36% | 1025.4 hPa | 0 mm | 1.34 m/s, ° | - | - |
| 1777206002 | 17.22° C | 38% | 1025.6 hPa | 0 mm | 1.34 m/s, ° | - | - |
| 1777204803 | 17.22° C | 37% | 1025.6 hPa | 6.35 mm | 0.89 m/s, ° | - | - |
| 1777203003 | 16.11° C | 39% | 1025.7 hPa | 6.35 mm | 1.79 m/s, ° | - | - |
| 1777202403 | 16.67° C | 41% | 1025.7 hPa | 6.35 mm | 1.34 m/s, ° | - | - |
| 1777202102 | 16.67° C | 40% | 1025.7 hPa | 6.35 mm | 1.34 m/s, ° | - | - |
| 1777199702 | 15° C | 45% | 1025.8 hPa | 0 mm | 1.79 m/s, ° | - | - |
| 1777199402 | 15° C | 45% | 1026 hPa | 0 mm | 1.79 m/s, ° | - | - |
| 1777199102 | 15° C | 46% | 1026 hPa | 0 mm | 1.34 m/s, ° | - | - |
| 1777197302 | 13.89° C | 50% | 1026 hPa | 0 mm | 0.89 m/s, ° | - | - |
| 1777196702 | 13.89° C | 50% | 1026.1 hPa | 0 mm | 1.79 m/s, ° | - | - |
| 1777196402 | 13.89° C | 52% | 1026.1 hPa | 0 mm | 0.89 m/s, ° | - | - |
| 1777196102 | 13.33° C | 53% | 1026.1 hPa | 0 mm | 1.34 m/s, ° | - | - |
| 1777195802 | 13.33° C | 55% | 1026.1 hPa | 0 mm | 2.24 m/s, ° | - | - |
| 1777195502 | 13.33° C | 55% | 1026.2 hPa | 0 mm | 1.34 m/s, ° | - | - |
| 1777195202 | 12.78° C | 56% | 1026.1 hPa | 0 mm | 1.79 m/s, ° | - | - |
| 1777194902 | 13.33° C | 56% | 1026.1 hPa | 0 mm | 0.89 m/s, ° | - | - |
| 1777194602 | 12.78° C | 58% | 1026.2 hPa | 0 mm | 0.89 m/s, ° | - | - |
| 1777194302 | 12.22° C | 59% | 1026.2 hPa | 0 mm | 1.34 m/s, ° | - | - |
* Rain latest hour (hover to see other rain measurements)
** Current wind speed in m/s (hover to see current wind gust speed)